Home, Washington
Current Conditions -  °F | °C
As of 7:53 AM on Tuesday 21 Oct 2014 (Local Time) from KTIW Reporting Station
Broken Clouds Broken Clouds  
Wind Chill: 53°   Ceiling: 3600
Heat Index: 53°   Visibility: 10mi
Dew Point: 50°   Wind: 12mph
Humidity: 89%   Direction: 180°S
Pressure: 29.88"   Gusts: NA
Location:  47.264°N, 122.772°W
Report Text: KTIW 211453Z 18010KT 10SM SCT010 BKN036 12/10 A2988 RMK AO2 RAE16 SLP119 P0000 60003 T01170100 51015
Loading
Personal Weather Stations






























Interactive Weather Map
Tropical Storm Tracking
New forecast layout! Learn more

10-Day Weather Forecast

Advertisements
Track Severe Weather on mobile